createdAt,value
2018-01-10T00:01:00.242Z,2.62
2018-01-10T00:03:27.643Z,2.75
2018-01-10T00:05:55.058Z,2.68
2018-01-10T00:08:22.454Z,2.76
2018-01-10T00:10:49.850Z,2.58
2018-01-10T00:13:17.250Z,2.47
2018-01-10T00:15:44.646Z,2.38
2018-01-10T00:18:12.047Z,2.48
2018-01-10T00:20:39.452Z,2.45
2018-01-10T00:23:06.826Z,2.38
2018-01-10T00:25:34.230Z,2.47
2018-01-10T00:28:01.618Z,2.67
2018-01-10T00:30:29.018Z,2.52
2018-01-10T00:32:56.441Z,2.59
2018-01-10T00:35:23.850Z,2.75
2018-01-10T00:37:51.239Z,2.72
2018-01-10T00:40:18.643Z,2.95
2018-01-10T00:42:46.032Z,3.05
2018-01-10T00:45:13.464Z,3.14
2018-01-10T00:47:40.878Z,3.28
2018-01-10T00:50:08.294Z,3.27
2018-01-10T00:52:35.749Z,3.32
2018-01-10T00:55:03.153Z,3.41
2018-01-10T00:57:30.627Z,3.40
2018-01-10T00:59:58.012Z,3.48
2018-01-10T01:02:25.416Z,3.51
2018-01-10T01:04:52.807Z,3.67
2018-01-10T01:07:20.240Z,3.79
2018-01-10T01:09:47.611Z,3.86
2018-01-10T01:12:15.045Z,3.86
2018-01-10T01:14:42.418Z,3.86
2018-01-10T01:17:09.822Z,3.77
2018-01-10T01:19:37.219Z,3.79
2018-01-10T01:22:04.628Z,3.89
2018-01-10T01:24:32.117Z,3.81
2018-01-10T01:26:59.537Z,3.68
2018-01-10T01:29:27.026Z,3.50
2018-01-10T01:31:54.438Z,3.36
2018-01-10T01:34:21.839Z,3.03
2018-01-10T01:36:49.229Z,2.92
2018-01-10T01:39:16.621Z,2.89
2018-01-10T01:41:44.027Z,2.88
2018-01-10T01:44:11.426Z,2.83
2018-01-10T01:46:38.919Z,2.75
2018-01-10T01:49:06.306Z,2.89
2018-01-10T01:51:33.709Z,2.87
2018-01-10T01:54:01.120Z,3.05
2018-01-10T01:56:28.498Z,3.21
2018-01-10T01:58:55.910Z,3.35
2018-01-10T02:01:23.319Z,3.49
2018-01-10T02:03:50.723Z,3.66
2018-01-10T02:06:18.162Z,3.83
2018-01-10T02:08:45.547Z,3.83
2018-01-10T02:11:12.938Z,3.87
2018-01-10T02:13:40.347Z,4.05
2018-01-10T02:16:07.738Z,4.19
2018-01-10T02:18:35.249Z,4.31
2018-01-10T02:21:02.627Z,4.38
2018-01-10T02:23:30.031Z,4.47
2018-01-10T02:25:57.420Z,4.27
2018-01-10T02:28:24.826Z,4.37
2018-01-10T02:30:52.226Z,4.57
2018-01-10T02:33:19.626Z,4.61
2018-01-10T02:35:47.022Z,4.70
2018-01-10T02:38:14.415Z,4.66
2018-01-10T02:40:41.814Z,4.62
2018-01-10T02:43:09.288Z,4.62
2018-01-10T02:45:36.682Z,4.42
2018-01-10T02:48:04.087Z,4.46
2018-01-10T02:50:31.491Z,4.43
2018-01-10T02:52:58.899Z,4.31
2018-01-10T02:55:26.299Z,4.21
2018-01-10T02:57:53.694Z,4.14
2018-01-10T03:00:21.090Z,3.92
2018-01-10T03:02:48.526Z,3.94
2018-01-10T03:05:15.941Z,3.88
2018-01-10T03:07:43.335Z,3.81
2018-01-10T03:10:10.734Z,3.69
2018-01-10T03:12:38.130Z,3.73
2018-01-10T03:15:05.535Z,3.74
2018-01-10T03:17:32.963Z,3.79
2018-01-10T03:20:00.364Z,3.75
2018-01-10T03:22:27.757Z,3.46
2018-01-10T03:24:55.174Z,3.38
2018-01-10T03:27:22.551Z,3.52
2018-01-10T03:29:49.952Z,3.52
2018-01-10T03:32:17.356Z,3.54
2018-01-10T03:34:44.761Z,3.57
2018-01-10T03:37:12.161Z,3.40
2018-01-10T03:39:39.559Z,3.49
2018-01-10T03:42:06.946Z,3.59
2018-01-10T03:44:34.362Z,3.59
2018-01-10T03:47:01.756Z,3.63
2018-01-10T03:49:29.152Z,3.54
2018-01-10T03:51:56.554Z,3.40
2018-01-10T03:54:23.946Z,3.44
2018-01-10T03:56:51.350Z,3.40
2018-01-10T03:59:18.750Z,3.29
2018-01-10T04:01:46.161Z,3.30
2018-01-10T04:04:13.548Z,3.28
2018-01-10T04:06:40.951Z,3.25
2018-01-10T04:09:08.351Z,3.36
2018-01-10T04:11:35.747Z,3.30
2018-01-10T04:14:03.134Z,3.30
2018-01-10T04:16:30.554Z,3.22
2018-01-10T04:18:57.955Z,3.42
2018-01-10T04:21:25.358Z,3.45
2018-01-10T04:23:52.756Z,3.50
2018-01-10T04:26:20.177Z,3.70
2018-01-10T04:28:47.562Z,3.85
2018-01-10T04:31:14.974Z,3.80
2018-01-10T04:33:42.354Z,3.99
2018-01-10T04:36:09.757Z,3.88
2018-01-10T04:38:37.152Z,3.87
2018-01-10T04:41:04.564Z,3.78
2018-01-10T04:43:31.958Z,3.64
2018-01-10T04:45:59.355Z,3.51
2018-01-10T04:48:26.776Z,3.49
2018-01-10T04:50:54.274Z,3.40
2018-01-10T04:53:21.683Z,3.34
2018-01-10T04:55:49.077Z,3.06
2018-01-10T04:58:16.479Z,3.05
2018-01-10T05:00:43.880Z,3.03
2018-01-10T05:03:11.279Z,3.13
2018-01-10T05:05:38.674Z,3.15
2018-01-10T05:08:06.076Z,3.28
2018-01-10T05:10:33.511Z,3.25
2018-01-10T05:13:00.912Z,3.14
2018-01-10T05:15:28.316Z,3.08
2018-01-10T05:17:55.720Z,3.18
2018-01-10T05:20:23.118Z,3.35
2018-01-10T05:22:50.522Z,3.43
2018-01-10T05:25:17.906Z,3.50
2018-01-10T05:27:45.315Z,3.62
2018-01-10T05:30:12.794Z,3.70
2018-01-10T05:32:40.162Z,3.79
2018-01-10T05:35:07.548Z,3.90
2018-01-10T05:37:34.958Z,3.98
2018-01-10T05:40:02.358Z,4.09
2018-01-10T05:42:29.749Z,4.22
2018-01-10T05:44:57.145Z,4.35
2018-01-10T05:47:24.542Z,4.28
2018-01-10T05:49:51.946Z,4.33
2018-01-10T05:52:19.334Z,4.32
2018-01-10T05:54:46.731Z,4.26
2018-01-10T05:57:14.125Z,4.09
2018-01-10T05:59:41.532Z,4.22
2018-01-10T06:02:08.931Z,4.26
2018-01-10T06:04:36.326Z,4.24
2018-01-10T06:07:03.727Z,4.26
2018-01-10T06:09:31.137Z,4.26
2018-01-10T06:11:58.579Z,4.30
2018-01-10T06:14:25.982Z,4.30
2018-01-10T06:16:53.377Z,4.30
2018-01-10T06:19:20.815Z,4.36
2018-01-10T06:21:48.200Z,4.32
2018-01-10T06:24:15.607Z,4.33
2018-01-10T06:26:42.999Z,4.32
2018-01-10T06:29:10.423Z,4.20
2018-01-10T06:31:37.823Z,4.24
2018-01-10T06:34:05.218Z,4.02
2018-01-10T06:36:32.622Z,3.55
2018-01-10T06:39:00.017Z,3.65
2018-01-10T06:41:27.419Z,3.64
2018-01-10T06:43:54.811Z,3.62
2018-01-10T06:46:22.216Z,3.70
2018-01-10T06:48:49.607Z,3.76
2018-01-10T06:51:17.005Z,3.87
2018-01-10T06:53:44.408Z,3.88
2018-01-10T06:56:11.859Z,3.73
2018-01-10T06:58:39.235Z,3.83
2018-01-10T07:01:06.643Z,3.91
2018-01-10T07:03:34.045Z,3.91
2018-01-10T07:06:01.434Z,3.76
2018-01-10T07:08:28.822Z,3.86
2018-01-10T07:10:56.224Z,3.96
2018-01-10T07:13:23.619Z,3.96
2018-01-10T07:15:51.027Z,3.82
2018-01-10T07:18:18.426Z,3.76
2018-01-10T07:20:45.846Z,3.84
2018-01-10T07:23:13.236Z,4.01
2018-01-10T07:25:40.645Z,4.01
2018-01-10T07:28:08.039Z,4.18
2018-01-10T07:30:35.434Z,4.35
2018-01-10T07:33:02.843Z,4.41
2018-01-10T07:35:30.239Z,4.52
2018-01-10T07:37:57.641Z,4.59
2018-01-10T07:40:25.031Z,4.65
2018-01-10T07:42:52.435Z,4.68
2018-01-10T07:45:19.856Z,4.77
2018-01-10T07:47:47.255Z,4.85
2018-01-10T07:50:14.647Z,4.87
2018-01-10T07:52:42.050Z,4.88
2018-01-10T07:55:09.450Z,4.74
2018-01-10T07:57:36.846Z,4.85
2018-01-10T08:00:04.241Z,4.88
2018-01-10T08:02:31.645Z,4.94
2018-01-10T08:04:59.043Z,4.93
2018-01-10T08:07:26.455Z,4.93
2018-01-10T08:09:53.847Z,5.02
2018-01-10T08:12:21.252Z,5.05
2018-01-10T08:14:48.645Z,5.11
2018-01-10T08:17:16.059Z,5.09
2018-01-10T08:19:43.450Z,5.07
2018-01-10T08:22:10.841Z,5.11
2018-01-10T08:24:38.238Z,5.08
2018-01-10T08:27:05.635Z,5.04
2018-01-10T08:29:33.041Z,4.85
2018-01-10T08:32:00.435Z,4.73
2018-01-10T08:34:28.798Z,4.74
2018-01-10T08:36:56.186Z,4.69
2018-01-10T08:39:23.594Z,4.76
2018-01-10T08:41:50.987Z,4.93
2018-01-10T08:44:18.388Z,5.09
2018-01-10T08:46:45.784Z,5.25
2018-01-10T08:49:13.191Z,5.38
2018-01-10T08:51:40.582Z,5.53
2018-01-10T08:54:07.984Z,5.61
2018-01-10T08:56:35.375Z,5.59
2018-01-10T08:59:02.783Z,5.56
2018-01-10T09:01:30.267Z,5.64
2018-01-10T09:03:57.667Z,5.71
2018-01-10T09:06:25.711Z,5.81
2018-01-10T09:08:53.113Z,5.88
2018-01-10T09:11:20.508Z,5.95
2018-01-10T09:13:47.910Z,5.92
2018-01-10T09:16:15.303Z,6.28
2018-01-10T09:18:42.706Z,6.81
2018-01-10T09:21:10.103Z,7.52
2018-01-10T09:23:37.491Z,8.28
2018-01-10T09:26:04.891Z,9.12
2018-01-10T09:28:32.287Z,9.98
2018-01-10T09:30:59.701Z,10.64
2018-01-10T09:33:27.104Z,11.26
2018-01-10T09:35:54.510Z,11.82
2018-01-10T09:38:21.913Z,11.63
2018-01-10T09:40:49.311Z,11.25
2018-01-10T09:43:16.710Z,10.74
2018-01-10T09:45:44.133Z,10.26
2018-01-10T09:48:11.523Z,9.51
2018-01-10T09:50:38.922Z,9.25
2018-01-10T09:53:06.315Z,9.12
2018-01-10T09:55:33.727Z,9.15
2018-01-10T09:58:01.119Z,9.34
2018-01-10T10:00:28.539Z,9.68
2018-01-10T10:02:55.936Z,10.01
2018-01-10T10:05:23.346Z,10.21
2018-01-10T10:07:50.748Z,10.18
2018-01-10T10:10:18.164Z,10.04
2018-01-10T10:12:46.351Z,10.00
2018-01-10T10:15:13.750Z,9.91
2018-01-10T10:17:41.207Z,9.78
2018-01-10T10:20:08.611Z,9.83
2018-01-10T10:22:36.011Z,9.62
2018-01-10T10:25:03.402Z,9.33
2018-01-10T10:27:30.801Z,9.21
2018-01-10T10:29:58.195Z,9.09
2018-01-10T10:32:25.634Z,8.96
2018-01-10T10:34:53.030Z,8.94
2018-01-10T10:37:20.431Z,8.75
2018-01-10T10:39:47.853Z,8.70
2018-01-10T10:42:15.240Z,8.57
2018-01-10T10:44:42.722Z,8.44
2018-01-10T10:47:10.094Z,8.61
2018-01-10T10:49:37.498Z,8.73
2018-01-10T10:52:04.902Z,8.77
2018-01-10T10:54:32.295Z,8.80
2018-01-10T10:56:59.712Z,8.82
2018-01-10T10:59:27.111Z,8.84
2018-01-10T11:01:54.516Z,8.88
2018-01-10T11:04:21.965Z,8.92
2018-01-10T11:06:49.353Z,8.86
2018-01-10T11:09:16.751Z,8.80
2018-01-10T11:11:44.143Z,8.84
2018-01-10T11:14:11.584Z,8.65
2018-01-10T11:16:39.886Z,8.60
2018-01-10T11:19:07.291Z,8.59
2018-01-10T11:21:34.697Z,8.69
2018-01-10T11:24:02.119Z,8.74
2018-01-10T11:26:29.515Z,8.69
2018-01-10T11:28:56.919Z,8.72
2018-01-10T11:31:24.323Z,8.61
2018-01-10T11:33:51.726Z,8.72
2018-01-10T11:36:19.118Z,8.75
2018-01-10T11:38:46.540Z,8.85
2018-01-10T11:41:14.007Z,8.73
2018-01-10T11:43:41.730Z,8.71
2018-01-10T11:46:09.122Z,8.58
2018-01-10T11:48:36.541Z,8.68
2018-01-10T11:51:03.927Z,8.83
2018-01-10T11:53:31.321Z,8.79
2018-01-10T11:55:58.718Z,8.70
2018-01-10T11:58:26.111Z,8.47
2018-01-10T12:00:53.524Z,8.31
2018-01-10T12:03:20.926Z,8.35
2018-01-10T12:05:48.343Z,8.23
2018-01-10T12:08:15.743Z,8.24
2018-01-10T12:10:43.140Z,8.16
2018-01-10T12:13:10.534Z,8.20
2018-01-10T12:15:37.933Z,8.20
2018-01-10T12:18:05.326Z,8.09
2018-01-10T12:20:32.799Z,8.18
2018-01-10T12:23:00.254Z,8.18
2018-01-10T12:25:27.658Z,8.18
2018-01-10T12:27:55.051Z,8.20
2018-01-10T12:30:22.614Z,8.23
2018-01-10T12:32:49.990Z,8.29
2018-01-10T12:35:17.395Z,8.49
2018-01-10T12:37:44.796Z,8.56
2018-01-10T12:40:12.185Z,8.67
2018-01-10T12:42:39.598Z,8.75
2018-01-10T12:45:07.003Z,8.82
2018-01-10T12:47:34.397Z,9.02
2018-01-10T12:50:01.790Z,9.08
2018-01-10T12:52:29.199Z,9.14
2018-01-10T12:54:56.590Z,9.08
2018-01-10T12:57:24.002Z,9.20
2018-01-10T12:59:51.401Z,9.14
2018-01-10T13:02:18.817Z,9.27
2018-01-10T13:04:46.225Z,9.40
2018-01-10T13:07:13.672Z,9.34
2018-01-10T13:09:41.064Z,9.44
2018-01-10T13:12:08.462Z,9.35
2018-01-10T13:14:35.855Z,9.30
2018-01-10T13:17:03.263Z,9.39
2018-01-10T13:19:30.662Z,9.45
2018-01-10T13:21:58.067Z,9.53
2018-01-10T13:24:25.519Z,9.28
2018-01-10T13:26:52.930Z,9.35
2018-01-10T13:29:20.319Z,9.50
2018-01-10T13:31:47.721Z,9.71
2018-01-10T13:34:15.146Z,9.72
2018-01-10T13:36:42.534Z,9.79
2018-01-10T13:39:09.937Z,9.77
2018-01-10T13:41:37.321Z,9.79
2018-01-10T13:44:04.735Z,9.96
2018-01-10T13:46:32.156Z,10.06
2018-01-10T13:48:59.561Z,10.10
2018-01-10T13:51:26.959Z,10.11
2018-01-10T13:53:54.359Z,10.11
2018-01-10T13:56:21.770Z,9.92
2018-01-10T13:58:49.181Z,10.13
2018-01-10T14:01:16.595Z,10.07
2018-01-10T14:03:44.000Z,10.07
2018-01-10T14:06:11.395Z,10.12
2018-01-10T14:08:38.800Z,9.96
2018-01-10T14:11:06.192Z,9.85
2018-01-10T14:13:33.599Z,9.80
2018-01-10T14:16:01.107Z,9.63
2018-01-10T14:18:28.510Z,9.68
2018-01-10T14:20:55.915Z,9.56
2018-01-10T14:23:23.315Z,9.54
2018-01-10T14:25:50.722Z,9.68
2018-01-10T14:28:18.142Z,9.52
2018-01-10T14:30:45.704Z,9.41
2018-01-10T14:33:13.043Z,9.33
2018-01-10T14:35:40.546Z,9.31
2018-01-10T14:38:07.950Z,9.25
2018-01-10T14:40:35.347Z,9.24
2018-01-10T14:43:02.740Z,9.27
2018-01-10T14:45:30.171Z,9.28
2018-01-10T14:47:57.567Z,9.29
2018-01-10T14:50:24.963Z,9.15
2018-01-10T14:52:52.367Z,9.06
2018-01-10T14:55:19.782Z,9.00
2018-01-10T14:57:47.178Z,8.97
2018-01-10T15:00:14.575Z,8.93
2018-01-10T15:02:41.975Z,8.86
2018-01-10T15:05:09.398Z,8.85
2018-01-10T15:07:36.786Z,8.99
2018-01-10T15:10:04.202Z,8.99
2018-01-10T15:12:31.696Z,8.95
2018-01-10T15:14:59.098Z,8.94
2018-01-10T15:17:26.506Z,8.88
2018-01-10T15:19:53.954Z,8.95
2018-01-10T15:22:21.407Z,8.84
2018-01-10T15:24:49.705Z,8.73
2018-01-10T15:27:17.095Z,8.87
2018-01-10T15:29:44.498Z,8.78
2018-01-10T15:32:11.899Z,8.75
2018-01-10T15:34:39.310Z,8.61
2018-01-10T15:37:06.699Z,8.51
2018-01-10T15:39:34.086Z,8.68
2018-01-10T15:42:01.512Z,8.69
2018-01-10T15:44:28.902Z,8.92
2018-01-10T15:46:56.311Z,9.11
2018-01-10T15:49:23.707Z,9.26
2018-01-10T15:51:51.190Z,9.31
2018-01-10T15:54:18.579Z,9.23
2018-01-10T15:56:45.997Z,9.19
2018-01-10T15:59:13.392Z,9.26
2018-01-10T16:01:40.818Z,9.28
2018-01-10T16:04:08.215Z,9.25
2018-01-10T16:06:35.623Z,9.19
2018-01-10T16:09:03.024Z,9.21
2018-01-10T16:11:30.427Z,9.13
2018-01-10T16:13:57.832Z,9.10
2018-01-10T16:16:25.282Z,9.06
2018-01-10T16:18:52.673Z,9.05
2018-01-10T16:21:20.162Z,9.19
2018-01-10T16:23:47.554Z,9.31
2018-01-10T16:26:14.938Z,9.36
2018-01-10T16:28:42.342Z,9.30
2018-01-10T16:31:09.739Z,9.20
2018-01-10T16:33:37.145Z,9.19
2018-01-10T16:36:04.523Z,9.12
2018-01-10T16:38:32.722Z,9.08
2018-01-10T16:41:00.124Z,9.00
2018-01-10T16:43:27.515Z,9.02
2018-01-10T16:45:54.933Z,9.05
2018-01-10T16:48:22.336Z,8.77
2018-01-10T16:50:49.724Z,8.65
2018-01-10T16:53:17.123Z,8.83
2018-01-10T16:55:44.519Z,8.90
2018-01-10T16:58:12.008Z,8.92
2018-01-10T17:00:39.399Z,8.93
2018-01-10T17:03:06.798Z,8.93
2018-01-10T17:05:34.192Z,8.97
2018-01-10T17:08:01.595Z,8.94
2018-01-10T17:10:28.991Z,9.01
2018-01-10T17:12:56.393Z,9.01
2018-01-10T17:15:23.790Z,9.11
2018-01-10T17:17:51.216Z,9.12
2018-01-10T17:20:18.613Z,9.04
2018-01-10T17:22:46.003Z,9.09
2018-01-10T17:25:13.417Z,9.07
2018-01-10T17:27:40.814Z,9.15
2018-01-10T17:30:08.235Z,9.30
2018-01-10T17:32:35.626Z,9.37
2018-01-10T17:35:03.032Z,9.44
2018-01-10T17:37:30.427Z,9.39
2018-01-10T17:39:57.827Z,9.08
2018-01-10T17:42:25.228Z,8.74
2018-01-10T17:44:52.631Z,8.66
2018-01-10T17:47:20.034Z,8.44
2018-01-10T17:49:47.434Z,8.58
2018-01-10T17:52:14.832Z,8.59
2018-01-10T17:54:42.230Z,8.54
2018-01-10T17:57:09.630Z,8.71
2018-01-10T17:59:37.040Z,8.80
2018-01-10T18:02:04.434Z,8.90
2018-01-10T18:04:31.838Z,8.94
2018-01-10T18:06:59.252Z,8.95
2018-01-10T18:09:26.668Z,8.92
2018-01-10T18:11:54.071Z,8.76
2018-01-10T18:14:21.462Z,8.64
2018-01-10T18:16:48.871Z,8.56
2018-01-10T18:19:16.254Z,8.61
2018-01-10T18:21:43.678Z,8.59
2018-01-10T18:26:48.079Z,8.42
2018-01-10T18:29:15.477Z,8.32
2018-01-10T18:31:42.885Z,8.29
2018-01-10T18:34:10.387Z,8.23
2018-01-10T18:36:37.783Z,8.23
2018-01-10T18:39:05.224Z,8.23
2018-01-10T18:41:32.647Z,8.11
2018-01-10T18:44:00.048Z,8.02
2018-01-10T18:46:27.462Z,8.14
2018-01-10T18:48:54.859Z,8.13
2018-01-10T18:51:22.280Z,8.03
2018-01-10T18:53:49.666Z,7.82
2018-01-10T18:56:17.074Z,7.77
2018-01-10T18:58:44.551Z,7.69
2018-01-10T19:01:11.961Z,7.58
2018-01-10T19:03:39.351Z,7.47
2018-01-10T19:06:06.746Z,7.36
2018-01-10T19:08:34.183Z,7.18
2018-01-10T19:11:01.611Z,7.22
2018-01-10T19:13:29.006Z,7.28
2018-01-10T19:15:56.403Z,7.27
2018-01-10T19:18:23.830Z,7.22
2018-01-10T19:20:51.231Z,7.18
2018-01-10T19:23:18.635Z,7.08
2018-01-10T19:25:46.027Z,7.00
2018-01-10T19:28:13.435Z,7.01
2018-01-10T19:30:40.832Z,6.96
2018-01-10T19:33:08.236Z,6.97
2018-01-10T19:35:35.629Z,6.92
2018-01-10T19:38:03.028Z,6.90
2018-01-10T19:40:30.420Z,6.83
2018-01-10T19:42:57.822Z,6.61
2018-01-10T19:45:25.239Z,6.72
2018-01-10T19:47:52.645Z,6.81
2018-01-10T19:50:20.040Z,6.79
2018-01-10T19:52:47.435Z,6.71
2018-01-10T19:55:14.834Z,6.61
2018-01-10T19:57:42.239Z,6.58
2018-01-10T20:00:09.634Z,6.63
2018-01-10T20:02:37.044Z,6.47
2018-01-10T20:05:04.443Z,6.37
2018-01-10T20:07:31.832Z,6.12
2018-01-10T20:09:59.235Z,6.02
2018-01-10T20:12:26.639Z,6.09
2018-01-10T20:14:54.041Z,5.94
2018-01-10T20:17:21.432Z,5.91
2018-01-10T20:19:48.837Z,5.84
2018-01-10T20:22:16.229Z,5.85
2018-01-10T20:24:43.623Z,5.85
2018-01-10T20:27:11.014Z,6.13
2018-01-10T20:29:38.419Z,6.29
2018-01-10T20:32:05.870Z,6.38
2018-01-10T20:34:33.270Z,6.46
2018-01-10T20:37:00.683Z,6.39
2018-01-10T20:39:28.119Z,6.04
2018-01-10T20:41:55.495Z,6.19
2018-01-10T20:44:22.917Z,6.17
2018-01-10T20:46:50.314Z,6.37
2018-01-10T20:49:17.712Z,6.36
2018-01-10T20:51:45.111Z,6.46
2018-01-10T20:54:12.493Z,6.40
2018-01-10T20:56:39.901Z,6.45
2018-01-10T20:59:07.303Z,6.35
2018-01-10T21:01:34.706Z,6.36
2018-01-10T21:04:02.096Z,6.32
2018-01-10T21:06:29.502Z,6.32
2018-01-10T21:08:56.900Z,6.37
2018-01-10T21:11:24.315Z,6.40
2018-01-10T21:13:51.706Z,6.46
2018-01-10T21:16:19.111Z,6.44
2018-01-10T21:18:46.515Z,6.42
2018-01-10T21:21:13.922Z,6.37
2018-01-10T21:23:41.338Z,6.31
2018-01-10T21:26:08.771Z,6.16
2018-01-10T21:28:36.181Z,6.09
2018-01-10T21:31:03.699Z,5.91
2018-01-10T21:33:31.136Z,5.80
2018-01-10T21:35:58.542Z,5.82
2018-01-10T21:38:25.955Z,5.83
2018-01-10T21:40:53.330Z,5.77
2018-01-10T21:43:20.734Z,5.71
2018-01-10T21:45:48.147Z,5.61
2018-01-10T21:48:15.543Z,5.50
2018-01-10T21:50:42.970Z,5.31
2018-01-10T21:53:10.374Z,5.11
2018-01-10T21:55:37.862Z,5.07
2018-01-10T21:58:05.267Z,5.13
2018-01-10T22:00:32.663Z,5.09
2018-01-10T22:03:00.111Z,5.10
2018-01-10T22:05:27.523Z,5.08
2018-01-10T22:07:54.931Z,5.06
2018-01-10T22:10:22.342Z,5.01
2018-01-10T22:12:49.748Z,5.00
2018-01-10T22:15:17.185Z,4.95
2018-01-10T22:17:44.582Z,4.89
2018-01-10T22:22:38.667Z,4.76
2018-01-10T22:25:06.064Z,4.72
2018-01-10T22:27:33.471Z,4.69
2018-01-10T22:30:00.876Z,4.63
2018-01-10T22:32:28.271Z,4.64
2018-01-10T22:34:55.671Z,4.37
2018-01-10T22:37:23.067Z,4.24
2018-01-10T22:39:50.534Z,4.30
2018-01-10T22:42:17.914Z,4.36
2018-01-10T22:44:45.342Z,4.35
2018-01-10T22:47:12.742Z,4.33
2018-01-10T22:49:40.135Z,4.33
2018-01-10T22:52:07.527Z,4.27
2018-01-10T22:54:34.928Z,4.22
2018-01-10T22:57:02.319Z,4.07
2018-01-10T22:59:29.730Z,4.10
2018-01-10T23:01:57.118Z,4.09
2018-01-10T23:04:24.512Z,4.11
2018-01-10T23:06:51.908Z,4.09
2018-01-10T23:09:19.290Z,4.01
2018-01-10T23:11:46.737Z,4.00
2018-01-10T23:14:14.083Z,3.91
2018-01-10T23:19:08.167Z,3.83
2018-01-10T23:21:35.560Z,3.78
2018-01-10T23:24:02.971Z,3.70
2018-01-10T23:26:30.371Z,3.75
2018-01-10T23:28:57.763Z,3.82
2018-01-10T23:31:25.172Z,3.81
2018-01-10T23:33:52.567Z,3.80
2018-01-10T23:36:19.967Z,3.80
2018-01-10T23:38:47.358Z,3.57
2018-01-10T23:41:14.854Z,3.53
2018-01-10T23:43:42.243Z,3.56
2018-01-10T23:46:09.638Z,3.55
2018-01-10T23:48:37.030Z,3.61
2018-01-10T23:51:04.437Z,3.48
2018-01-10T23:53:31.826Z,3.45
2018-01-10T23:55:59.226Z,3.47
2018-01-10T23:58:26.631Z,3.48
